Latest Weather Observations for Cerberus

IDV60801

Issued at 10:32 pm EST Tuesday 25 July 2017 (issued every 30 minutes, with the page automatically refreshed every 10 minutes)

About weather observations | Map of weather stations | Latest weather observations for VIC | Other Formats
Station Details ID: 086361 Name: CERBERUS Lat: -38.36 Lon: 145.18 Height: 12.69 m
Data from the previous 72 hours. | See also: Recent months at Cerberus
Date/Time
EST
Temp
°C
App
Temp
°C
Dew
Point
°C
Rel
Hum
%
Delta-T
°C
Wind Press
QNH
hPa
Press
MSL
hPa
Rain since
9am
mm
Dir  Spd
km/h
Gust
km/h
Spd
kts
Gust
kts
25/10:30pm 11.7 7.4 7.2 74 2.2 NW 19 28 10 15 1011.4 1011.5 8.2
25/10:00pm 11.9 7.5 7.2 73 2.3 NW 20 35 11 19 1011.5 1011.6 8.2
25/09:30pm 11.9 8.4 7.2 73 2.3 NW 15 26 8 14 1011.4 1011.5 8.2
25/09:00pm 12.3 8.9 7.6 73 2.3 NW 15 24 8 13 1011.3 1011.4 8.2
25/08:30pm 12.3 8.2 7.8 74 2.2 NW 19 30 10 16 1011.2 1011.3 8.2
25/08:00pm 12.6 8.8 7.5 71 2.5 WNW 17 28 9 15 1011.3 1011.4 8.2
25/07:30pm 12.4 8.5 7.3 71 2.5 NW 17 28 9 15 1011.5 1011.6 8.2
25/07:00pm 12.2 8.3 6.9 70 2.5 NW 17 26 9 14 1011.4 1011.5 8.2
25/06:30pm 12.0 8.1 7.3 73 2.3 NW 17 28 9 15 1011.2 1011.3 8.2
25/06:00pm 12.0 9.4 9.2 83 1.4 NW 13 28 7 15 1011.1 1011.2 8.2
25/05:30pm 11.5 9.6 8.9 84 1.3 NNW 9 13 5 7 1010.5 1010.6 8.2
25/05:00pm 11.4 7.2 8.4 82 1.5 NW 20 35 11 19 1011.4 1011.5 8.2
25/04:30pm 14.5 10.8 8.0 65 3.2 NNW 17 28 9 15 1010.5 1010.6 1.2
25/04:00pm 15.2 11.7 7.3 59 3.9 NNW 15 28 8 15 1010.5 1010.6 1.0
25/03:30pm 16.4 11.5 7.1 54 4.6 NNW 22 37 12 20 1010.6 1010.7 1.0
25/03:00pm 16.8 12.4 7.4 54 4.7 NNW 20 39 11 21 1010.7 1010.8 1.0
25/02:30pm 16.7 12.2 6.8 52 4.9 NNW 20 37 11 20 1010.4 1010.5 1.0
25/02:00pm 16.7 12.3 6.5 51 5.0 NNW 19 35 10 19 1010.6 1010.7 1.0
25/01:30pm 16.3 11.8 7.0 54 4.6 NNW 20 37 11 20 1011.1 1011.2 1.0
25/01:00pm 15.4 10.5 6.7 56 4.3 NNW 22 39 12 21 1011.5 1011.6 1.0
25/12:30pm 14.7 9.9 7.3 61 3.6 NNW 22 39 12 21 1012.0 1012.1 1.0
25/12:00pm 11.9 8.1 7.4 74 2.2 N 17 30 9 16 1012.9 1013.0 1.0
25/11:30am 12.4 8.6 7.5 72 2.4 NNW 17 32 9 17 1013.8 1013.8 0.6
25/11:00am 11.9 7.6 7.8 76 2.0 NNW 20 32 11 17 1014.6 1014.6 0.6
25/10:30am 14.6 10.2 6.7 59 3.8 NNW 19 35 10 19 1014.9 1014.9 0.0
25/10:00am 14.1 10.8 6.2 59 3.8 N 13 26 7 14 1015.0 1015.0 0.0
25/09:30am 12.8 10.3 6.6 66 3.0 NNE 9 17 5 9 1015.3 1015.3 0.0
25/09:00am 12.3 9.7 6.1 66 2.9 NNE 9 19 5 10 1015.6 1015.6 0.2
25/08:30am 11.4 8.8 6.1 70 2.5 N 9 19 5 10 1015.6 1015.6 0.2
25/08:00am 10.1 7.5 5.9 75 1.9 N 9 17 5 9 1015.5 1015.5 0.2
25/07:30am 9.8 6.8 6.0 77 1.8 N 11 19 6 10 1015.3 1015.3 0.2
25/07:00am 10.2 6.1 6.0 75 1.9 N 17 28 9 15 1015.2 1015.2 0.2
25/06:30am 10.3 6.2 6.3 76 1.9 NNW 17 30 9 16 1015.3 1015.3 0.2
25/06:00am 10.4 6.4 6.5 77 1.8 NNW 17 28 9 15 1015.5 1015.5 0.2
25/05:30am 10.6 6.0 6.6 76 1.9 NNW 20 37 11 20 1015.5 1015.5 0.2
25/05:00am 10.9 6.0 6.8 76 1.9 NNW 22 39 12 21 1015.4 1015.4 0.2
25/04:30am 10.8 6.9 6.9 77 1.8 NNW 17 32 9 17 1015.6 1015.6 0.2
25/04:00am 10.8 7.3 7.1 78 1.8 NNW 15 30 8 16 1015.8 1015.8 0.2
25/03:30am 10.8 7.7 7.3 79 1.7 NNW 13 24 7 13 1016.2 1016.2 0.2
25/03:00am 10.7 7.2 7.2 79 1.7 NNW 15 28 8 15 1016.4 1016.4 0.2
25/02:30am 10.9 7.1 7.4 79 1.7 NNW 17 33 9 18 1016.7 1016.7 0.2
25/02:00am 10.8 7.4 7.5 80 1.6 NNW 15 26 8 14 1017.0 1017.0 0.2
25/01:30am 10.9 7.9 7.8 81 1.5 NNW 13 24 7 13 1017.2 1017.2 0.2
25/01:00am 10.5 7.5 7.6 82 1.4 NNW 13 22 7 12 1017.3 1017.3 0.2
25/12:30am 10.4 7.8 7.6 83 1.3 NNW 11 17 6 9 1017.5 1017.5 0.2
25/12:00am 10.4 8.6 7.8 84 1.2 NNW 7 17 4 9 1017.9 1017.9 0.2
 
Date/Time
EST
Temp
°C
App
Temp
°C
Dew
Point
°C
Rel
Hum
%
Delta-T
°C
Wind Press
QNH
hPa
Press
MSL
hPa
Rain since
9am
mm
Dir  Spd
km/h
Gust
km/h
Spd
kts
Gust
kts
24/11:30pm 10.0 7.7 7.4 84 1.2 NNW 9 17 5 9 1018.0 1018.0 0.2
24/11:00pm 10.3 7.3 7.5 83 1.3 NNW 13 20 7 11 1018.3 1018.3 0.2
24/10:30pm 10.4 7.4 7.6 83 1.3 NNW 13 22 7 12 1018.3 1018.3 0.2
24/10:00pm 10.3 8.0 7.4 82 1.4 NNW 9 20 5 11 1018.4 1018.4 0.2
24/09:30pm 10.3 8.1 7.7 84 1.2 NNW 9 15 5 8 1018.5 1018.5 0.2
24/09:00pm 9.8 8.1 7.6 86 1.0 NNW 6 9 3 5 1018.4 1018.4 0.2
24/08:30pm 8.1 6.1 6.2 88 0.9 NNW 6 9 3 5 1018.4 1018.4 0.2
24/08:00pm 8.1 6.1 6.1 87 0.9 NNW 6 9 3 5 1018.3 1018.3 0.0
24/07:30pm 8.4 6.4 6.2 86 1.0 NW 6 7 3 4 1018.1 1018.1 0.0
24/07:00pm 8.5 6.8 6.1 85 1.1 NW 4 6 2 3 1018.1 1018.1 0.0
24/06:30pm 9.2 8.0 6.5 83 1.3 NW 2 6 1 3 1018.0 1018.0 0.0
24/06:00pm 10.0 8.6 7.1 82 1.4 NNW 4 7 2 4 1017.8 1017.8 0.0
24/05:30pm 10.7 8.9 7.2 79 1.7 NW 6 7 3 4 1017.7 1017.7 0.0
24/05:00pm 12.4 10.9 8.5 77 1.9 NW 6 13 3 7 1017.5 1017.5 0.0
24/04:30pm 12.3 10.7 8.6 78 1.8 NW 7 13 4 7 1017.6 1017.6 0.0
24/04:00pm 12.0 10.0 8.7 80 1.6 NW 9 17 5 9 1017.7 1017.7 0.0
24/03:30pm 12.1 9.6 8.2 77 1.9 NW 11 17 6 9 1017.8 1017.8 0.0
24/03:00pm 12.9 10.3 7.8 71 2.5 NW 11 17 6 9 1017.6 1017.6 0.0
24/02:30pm 12.9 9.5 7.6 70 2.6 NW 15 22 8 12 1017.7 1017.7 0.0
24/02:00pm 13.5 9.8 7.9 69 2.8 NW 17 24 9 13 1018.0 1018.0 0.0
24/01:30pm 13.4 10.5 8.0 70 2.7 NW 13 20 7 11 1018.4 1018.4 0.0
24/01:00pm 13.1 9.3 7.5 69 2.7 NW 17 28 9 15 1018.5 1018.5 0.0
24/12:30pm 12.8 8.8 8.1 73 2.3 WNW 19 28 10 15 1018.8 1018.8 0.0
24/12:00pm 12.3 8.7 8.2 76 2.0 NW 17 24 9 13 1019.0 1019.0 0.0
24/11:30am 11.8 8.1 7.9 77 1.9 WNW 17 26 9 14 1019.3 1019.3 0.0
24/11:00am 11.4 7.7 8.1 80 1.6 WNW 17 30 9 16 1019.7 1019.7 0.0
24/10:30am 10.7 7.4 8.1 84 1.3 NW 15 24 8 13 1019.7 1019.7 0.0
24/10:00am 10.2 6.8 7.8 85 1.2 NW 15 24 8 13 1019.7 1019.7 0.0
24/09:30am 10.4 8.0 8.5 88 0.9 NW 11 17 6 9 1019.5 1019.5 0.0
24/09:00am 9.3 7.1 7.9 91 0.7 NW 9 13 5 7 1019.1 1019.1 7.0
24/08:30am 8.8 7.1 7.6 92 0.6 NNW 6 9 3 5 1018.7 1018.7 7.0
24/08:00am 8.4 6.0 7.2 92 0.6 NW 9 17 5 9 1018.6 1018.6 7.0
24/07:30am 8.0 6.1 6.8 92 0.6 NNW 6 11 3 6 1018.2 1018.2 7.0
24/07:00am 8.2 5.8 6.8 91 0.6 NW 9 15 5 8 1018.0 1018.0 7.0
24/06:30am 8.6 5.9 7.2 91 0.7 NW 11 22 6 12 1017.9 1017.9 7.0
24/06:00am 8.6 5.1 7.2 91 0.7 WNW 15 24 8 13 1017.5 1017.5 7.0
24/05:30am 8.6 5.5 7.2 91 0.7 NW 13 19 7 10 1017.2 1017.2 7.0
24/05:00am 8.8 5.3 7.4 91 0.7 WNW 15 20 8 11 1016.9 1016.9 7.0
24/04:30am 8.8 6.2 7.6 92 0.6 NW 11 20 6 11 1016.8 1016.8 7.0
24/04:00am 9.0 6.4 7.8 92 0.6 WNW 11 19 6 10 1016.6 1016.6 7.0
24/03:30am 9.2 7.0 8.0 92 0.6 NW 9 17 5 9 1016.4 1016.4 7.0
24/03:00am 9.0 7.2 7.8 92 0.6 NW 7 9 4 5 1016.4 1016.4 6.8
24/02:30am 9.1 7.4 7.7 91 0.7 W 6 7 3 4 1016.2 1016.2 6.8
24/02:00am 9.4 7.7 8.2 92 0.6 WNW 7 13 4 7 1016.2 1016.2 6.8
24/01:30am 9.5 7.4 8.3 92 0.6 WNW 9 13 5 7 1016.1 1016.1 6.6
24/01:00am 9.6 8.1 8.4 92 0.6 WNW 6 9 3 5 1016.0 1016.0 6.2
24/12:30am 9.4 7.6 8.0 91 0.7 W 7 11 4 6 1016.0 1016.0 4.8
24/12:00am 9.4 6.9 8.2 92 0.6 NW 11 17 6 9 1015.7 1015.7 4.6
 
Date/Time
EST
Temp
°C
App
Temp
°C
Dew
Point
°C
Rel
Hum
%
Delta-T
°C
Wind Press
QNH
hPa
Press
MSL
hPa
Rain since
9am
mm
Dir  Spd
km/h
Gust
km/h
Spd
kts
Gust
kts
23/11:30pm 8.9 7.0 7.5 91 0.7 NW 7 11 4 6 1015.4 1015.4 4.6
23/11:00pm 8.5 6.5 7.3 92 0.6 NW 7 9 4 5 1015.5 1015.5 4.6
23/10:30pm 8.1 6.2 6.7 91 0.6 NNW 6 7 3 4 1015.4 1015.4 4.6
23/10:00pm 8.7 6.3 7.2 90 0.7 NW 9 15 5 8 1015.1 1015.1 4.6
23/09:30pm 8.8 6.5 7.4 91 0.7 NW 9 13 5 7 1014.8 1014.8 4.6
23/09:00pm 8.5 6.7 7.1 91 0.7 NW 6 9 3 5 1014.6 1014.6 4.6
23/08:30pm 8.4 6.5 6.9 90 0.7 NNW 6 9 3 5 1014.1 1014.1 4.6
23/08:00pm 9.0 7.2 7.1 88 0.9 NW 6 9 3 5 1013.9 1013.9 4.6
23/07:30pm 9.9 8.3 7.8 87 1.0 WNW 6 7 3 4 1013.7 1013.7 4.6
23/07:00pm 10.0 8.4 8.1 88 0.9 W 6 7 3 4 1013.1 1013.2 4.4
23/06:30pm 10.1 8.5 8.0 87 1.0 W 6 7 3 4 1012.7 1012.8 4.4
23/06:00pm 10.5 8.8 8.3 86 1.1 WNW 7 13 4 7 1012.3 1012.4 4.4
23/05:30pm 11.3 9.3 8.7 84 1.3 W 9 22 5 12 1012.2 1012.3 3.2
23/05:00pm 11.9 9.1 8.7 81 1.6 WNW 13 20 7 11 1011.6 1011.7 3.0
23/04:30pm 12.4 9.7 9.1 80 1.7 WNW 13 20 7 11 1011.0 1011.1 3.0
23/04:00pm 12.6 10.0 9.2 80 1.7 WNW 13 20 7 11 1010.8 1010.9 3.0
23/03:30pm 12.2 9.6 9.2 82 1.5 WNW 13 19 7 10 1010.5 1010.6 3.0
23/03:00pm 11.3 8.7 9.2 87 1.1 WNW 13 20 7 11 1010.4 1010.5 3.0
23/02:30pm 11.1 7.8 9.4 89 0.9 NW 17 26 9 14 1010.3 1010.4 3.0
23/02:00pm 10.4 7.6 8.5 88 0.9 NW 13 19 7 10 1010.3 1010.4 1.8
23/01:30pm 10.3 7.4 8.2 87 1.0 NNW 13 24 7 13 1010.1 1010.2 1.4
23/01:00pm 10.6 7.2 7.7 82 1.4 NNW 15 24 8 13 1010.6 1010.7 1.2
23/12:30pm 11.3 7.7 6.8 74 2.1 NW 15 30 8 16 1010.7 1010.8 0.8
23/12:00pm 11.3 7.4 7.2 76 2.0 NW 17 32 9 17 1011.0 1011.1 0.6
23/11:30am 13.7 9.6 6.3 61 3.5 NNW 17 28 9 15 1011.0 1011.1 0.0
23/11:00am 13.6 9.0 5.7 59 3.7 NNW 19 28 10 15 1011.3 1011.4 0.0
23/10:30am 12.5 8.1 5.0 60 3.5 NNW 17 32 9 17 1011.5 1011.6 0.0
23/10:00am 11.7 7.2 4.4 61 3.3 NNW 17 33 9 18 1011.3 1011.4 0.0
23/09:30am 11.5 7.0 4.3 61 3.2 NNW 17 32 9 17 1011.1 1011.2 0.0
23/09:00am 11.2 7.0 4.0 61 3.2 NNW 15 30 8 16 1010.9 1011.0 0.0
23/08:30am 10.9 6.6 3.5 60 3.3 NNW 15 30 8 16 1010.6 1010.7 0.0
23/08:00am 10.5 6.5 2.8 59 3.3 NW 13 28 7 15 1010.5 1010.6 0.0
23/07:30am 10.5 6.0 2.4 57 3.5 NW 15 28 8 15 1010.4 1010.5 0.0
23/07:00am 10.9 5.4 2.0 54 3.8 NNW 20 37 11 20 1009.9 1010.0 0.0
23/06:30am 11.2 5.3 1.7 52 4.0 NNW 22 39 12 21 1009.4 1009.5 0.0
23/06:00am 11.5 4.8 1.5 50 4.2 NNW 26 46 14 25 1009.2 1009.3 0.0
23/05:30am 11.6 5.2 1.0 48 4.4 NNW 24 39 13 21 1009.2 1009.3 0.0
23/05:01am 12.1 4.9 0.5 45 4.8 NNW 28 46 15 25 1009.2 1009.3 0.0
23/05:00am 12.1 5.3 0.5 45 4.8 NNW 26 44 14 24 1009.2 1009.3 0.0
23/04:30am 12.0 4.7 0.1 44 4.9 NNW 28 48 15 26 1009.0 1009.1 0.0
23/04:00am 11.9 4.6 -0.3 43 5.0 NNW 28 50 15 27 1009.2 1009.3 0.0
23/03:30am 12.2 4.4 -0.6 41 5.2 NNW 30 50 16 27 1009.1 1009.2 0.0
23/03:00am 12.2 4.4 -0.6 41 5.2 NNW 30 54 16 29 1009.4 1009.5 0.0
23/02:30am 12.2 4.9 -0.3 42 5.1 NNW 28 50 15 27 1009.8 1009.9 0.0
23/02:11am 12.2 4.9 -0.3 42 5.1 NNW 28 50 15 27 1009.8 1009.9 0.0
23/02:00am 12.0 5.0 -0.2 43 5.0 NNW 26 44 14 24 1010.0 1010.1 0.0
23/01:30am 11.6 5.1 0.4 46 4.6 NNW 24 44 13 24 1010.6 1010.7 0.0
23/01:00am 10.9 5.3 0.9 50 4.1 N 20 35 11 19 1011.1 1011.2 0.0
23/12:30am 11.1 4.7 1.1 50 4.2 N 24 46 13 25 1011.4 1011.5 0.0
23/12:00am 11.1 5.2 1.4 51 4.1 N 22 50 12 27 1011.4 1011.5 0.0
 
Date/Time
EST
Temp
°C
App
Temp
°C
Dew
Point
°C
Rel
Hum
%
Delta-T
°C
Wind Press
QNH
hPa
Press
MSL
hPa
Rain since
9am
mm
Dir  Spd
km/h
Gust
km/h
Spd
kts
Gust
kts
22/11:30pm 10.7 5.7 1.5 53 3.9 N 17 33 9 18 1011.9 1012.0 0.0
22/11:00pm 10.6 5.7 1.7 54 3.7 N 17 28 9 15 1012.4 1012.5 0.0

Other Formats:

Comma delimited format used in spreadsheet applications
http://www.bom.gov.au/fwo/IDV60801/IDV60801.94898.axf

JavaScript Object Notation format (JSON) in row-major order
http://www.bom.gov.au/fwo/IDV60801/IDV60801.94898.json